Aeroporto :
LOGIN :

Iscrizione | Disclaimer

   EN    FR    IT 

 










Sommario :    VFR   VFR Marginale   IFR   IFR Intensivo   IFR Molto Intensivo
Visibilità : 
Base nubi : 
>= 8 km
>= 3000ft
5 / 8 km
1000 / 3000 ft
1500m / 5 km
500 / 1000 ft
800 / 1500m
200 / 500 ft
< 800m
< 200 ft
Simboli :   Temporali  Nebbia  Neve Forte  Precipitazioni Forti  Vento > 20 kt
SIGMETs :   Varie  Temporali  Ghiacco  Turbolenza  Onda orograficha  Ceneri Vulcaniche






- Altitudine del aeroporto : 219 ft
- Codice IATA : DNR


LFRD - Dinard

ULTIMO METAR :
  • 250530Z AUTO 11003KT 040V160 4100 BR FEW002 OVC064 03/03 Q1018 TEMPO 0500 FG VV///

METARs OBSOLETI :
  • 250500Z AUTO VRB03KT 3500 BR FEW002 OVC066 03/03 Q1018 TEMPO 0500 FG VV///
  • 250430Z AUTO 11005KT 080V160 1800 BR BKN002 OVC062 03/03 Q1018 TEMPO 0500 FG VV///
  • 250400Z AUTO 09003KT 040V180 0900 0600 R35L/1500U FG VV/// 03/03 Q1018 TEMPO 0500 FG
  • 250330Z AUTO 11004KT 080V150 1000 0900 R35L/1100N BCFG VV/// 03/03 Q1018 TEMPO 0500 FG
  • 250300Z AUTO 11004KT 0700 R35L/0800N FG VV/// 03/03 Q1019 TEMPO 0500 FG

TAF TAF LFRD
Valido dal 25 a 06 ore il 26 a 06 ore UTC


250500Z 2506/2606 12005KT 4000 BR OVC005
TEMPO 2506/2606 1500 DZ BR BKN002
PROB40
TEMPO 2506/2510 0500 FG VV///
BECMG 2508/2510 14010KT
PROB30
TEMPO 2520/2604 0500 FG VV///
BECMG 2602/2604 20010KT
ATIS : +33 2 99 16 81 50



MetMap, La meteo Aeronautica in un colpo d'occhio ! - Copyright ORBIFLY Dicembre 2007 - Disclaimer

ORBIFLY MET'MAP TEAM :

Programmazione e sviluppo : Alexandra Zaïnal
Concezione : Baudouin d'Aumeries
Aiuto per la programmazione : Marc-Olivier Méhu
Supporto tecnico e logistico : Manuel Goepfert
Aiuto per la traduzione : Arnaldo La Scala

Contatto : metmap@orbifly.com




FONTI E CREDITI :

   NOAA